THY33C LTFM-LSGG
Flight info
| Callsign | THY33C |
|---|---|
| Flight time | N/A |
| Altitude | 40000 |
| Route | VADEN N618 GOL DCT DOLAP DCT OBLAK DCT VEBAR DCT ROTAR DCT TZO DCT MMP DCT AOSTA L615 BANKO |
| Aircraft | A359/H-SDE2E3GHIJ3J4J5LM1ORWXY/LB1D1 |
Departure
| Time | 2026-05-05 05:42 |
|---|---|
| Airport | İstanbul Airport (LTFM) |
Arrival
| Time | N/A |
|---|---|
| Airport | Geneva International Airport (LSGG) |
| Time | Latitude | Longitude | Altitude | Speed | Heading |
|---|---|---|---|---|---|
| 2026-05-05 05:18 | 41.26704 | 28.73446 | 340 ft | 0 kts | 89° |
| 2026-05-05 05:34 | 41.26704 | 28.73420 | 337 ft | 4 kts | 87° |
| 2026-05-05 05:34 | 41.26702 | 28.73390 | 317 ft | 3 kts | 89° |
| 2026-05-05 05:34 | 41.26707 | 28.73358 | 335 ft | 4 kts | 131° |
| 2026-05-05 05:35 | 41.26728 | 28.73339 | 335 ft | 4 kts | 165° |
| 2026-05-05 05:35 | 41.26754 | 28.73334 | 335 ft | 3 kts | 179° |
| 2026-05-05 05:35 | 41.26773 | 28.73333 | 335 ft | 0 kts | 179° |
| 2026-05-05 05:38 | 41.26759 | 28.73334 | 335 ft | 5 kts | 177° |
| 2026-05-05 05:38 | 41.26726 | 28.73329 | 335 ft | 5 kts | 178° |
| 2026-05-05 05:38 | 41.26670 | 28.73334 | 335 ft | 11 kts | 175° |
| 2026-05-05 05:39 | 41.26608 | 28.73301 | 338 ft | 9 kts | 242° |
| 2026-05-05 05:39 | 41.26599 | 28.73214 | 340 ft | 11 kts | 268° |
| 2026-05-05 05:39 | 41.26597 | 28.73092 | 336 ft | 15 kts | 269° |
| 2026-05-05 05:39 | 41.26596 | 28.72963 | 340 ft | 0 kts | 270° |
| 2026-05-05 05:40 | 41.26596 | 28.72954 | 340 ft | 3 kts | 269° |
| 2026-05-05 05:40 | 41.26595 | 28.72898 | 335 ft | 9 kts | 269° |
| 2026-05-05 05:41 | 41.26598 | 28.72801 | 336 ft | 8 kts | 289° |
| 2026-05-05 05:41 | 41.26643 | 28.72768 | 335 ft | 8 kts | 355° |
| 2026-05-05 05:41 | 41.26671 | 28.72767 | 335 ft | 0 kts | 358° |
| 2026-05-05 05:42 | 41.26767 | 28.72764 | 338 ft | 46 kts | 359° |
| 2026-05-05 05:42 | 41.27331 | 28.72751 | 337 ft | 114 kts | 358° |
| 2026-05-05 05:42 | 41.28322 | 28.72727 | 387 ft | 165 kts | 356° |
| 2026-05-05 05:42 | 41.29500 | 28.72692 | 1037 ft | 172 kts | 358° |
| 2026-05-05 05:43 | 41.30697 | 28.72668 | 1821 ft | 181 kts | 360° |
| 2026-05-05 05:43 | 41.32044 | 28.72649 | 2326 ft | 208 kts | 0° |
| 2026-05-05 05:43 | 41.33590 | 28.72628 | 2909 ft | 232 kts | 0° |
| 2026-05-05 05:43 | 41.35221 | 28.72596 | 3628 ft | 237 kts | 0° |
| 2026-05-05 05:44 | 41.36883 | 28.72354 | 4334 ft | 242 kts | 348° |
| 2026-05-05 05:44 | 41.38420 | 28.71400 | 5063 ft | 249 kts | 327° |
| 2026-05-05 05:44 | 41.39647 | 28.69742 | 5806 ft | 254 kts | 314° |
| 2026-05-05 05:44 | 41.40687 | 28.67821 | 6569 ft | 257 kts | 308° |
| 2026-05-05 05:45 | 41.41630 | 28.65777 | 7244 ft | 261 kts | 306° |
| 2026-05-05 05:45 | 41.42530 | 28.63690 | 7884 ft | 265 kts | 304° |
| 2026-05-05 05:45 | 41.43447 | 28.61540 | 8533 ft | 269 kts | 305° |
| 2026-05-05 05:45 | 41.44389 | 28.59369 | 9212 ft | 272 kts | 305° |
| 2026-05-05 05:46 | 41.45358 | 28.57187 | 9877 ft | 275 kts | 306° |
| 2026-05-05 05:46 | 41.46361 | 28.54977 | 10341 ft | 285 kts | 306° |
| 2026-05-05 05:46 | 41.47426 | 28.52667 | 10607 ft | 301 kts | 306° |
| 2026-05-05 05:46 | 41.48554 | 28.50234 | 10826 ft | 316 kts | 307° |
| 2026-05-05 05:47 | 41.49727 | 28.47700 | 11199 ft | 326 kts | 306° |
| 2026-05-05 05:47 | 41.50926 | 28.45102 | 11689 ft | 331 kts | 306° |
| 2026-05-05 05:47 | 41.52123 | 28.42496 | 12218 ft | 336 kts | 306° |
| 2026-05-05 05:47 | 41.53349 | 28.39823 | 12747 ft | 340 kts | 306° |
| 2026-05-05 05:48 | 41.54591 | 28.37112 | 13252 ft | 344 kts | 306° |
| 2026-05-05 05:48 | 41.55846 | 28.34372 | 13802 ft | 348 kts | 306° |
| 2026-05-05 05:48 | 41.57114 | 28.31600 | 14279 ft | 351 kts | 306° |
| 2026-05-05 05:48 | 41.58388 | 28.28814 | 14809 ft | 352 kts | 306° |
| 2026-05-05 05:49 | 41.59666 | 28.26016 | 15324 ft | 354 kts | 306° |
| 2026-05-05 05:49 | 41.60948 | 28.23208 | 15841 ft | 355 kts | 306° |
| 2026-05-05 05:49 | 41.62237 | 28.20384 | 16357 ft | 357 kts | 306° |
| 2026-05-05 05:49 | 41.63532 | 28.17543 | 16879 ft | 359 kts | 306° |
| 2026-05-05 05:50 | 41.64817 | 28.14723 | 17363 ft | 361 kts | 306° |
| 2026-05-05 05:50 | 41.66125 | 28.11851 | 17862 ft | 363 kts | 305° |
| 2026-05-05 05:50 | 41.67439 | 28.08962 | 18351 ft | 365 kts | 305° |
| 2026-05-05 05:50 | 41.68762 | 28.06049 | 18784 ft | 367 kts | 305° |
| 2026-05-05 05:51 | 41.70088 | 28.03126 | 19207 ft | 368 kts | 304° |
| 2026-05-05 05:51 | 41.71419 | 28.00189 | 19639 ft | 370 kts | 304° |
| 2026-05-05 05:51 | 41.72758 | 27.97235 | 20061 ft | 372 kts | 304° |
| 2026-05-05 05:51 | 41.74101 | 27.94267 | 20476 ft | 374 kts | 304° |
| 2026-05-05 05:52 | 41.75431 | 27.91324 | 20889 ft | 375 kts | 303° |
| 2026-05-05 05:52 | 41.76785 | 27.88326 | 21314 ft | 377 kts | 303° |
| 2026-05-05 05:52 | 41.78140 | 27.85320 | 21719 ft | 378 kts | 303° |
| 2026-05-05 05:52 | 41.79503 | 27.82294 | 22127 ft | 380 kts | 303° |
| 2026-05-05 05:53 | 41.80871 | 27.79256 | 22529 ft | 382 kts | 302° |
| 2026-05-05 05:53 | 41.82245 | 27.76203 | 22935 ft | 383 kts | 302° |
| 2026-05-05 05:53 | 41.83622 | 27.73139 | 23318 ft | 384 kts | 302° |
| 2026-05-05 05:53 | 41.85002 | 27.70066 | 23750 ft | 385 kts | 302° |
| 2026-05-05 05:54 | 41.86365 | 27.67026 | 24059 ft | 387 kts | 302° |
| 2026-05-05 05:54 | 41.87755 | 27.63922 | 24335 ft | 389 kts | 302° |
| 2026-05-05 05:54 | 41.89151 | 27.60802 | 24639 ft | 391 kts | 302° |
| 2026-05-05 05:54 | 41.90554 | 27.57662 | 24944 ft | 393 kts | 301° |
| 2026-05-05 05:55 | 41.91961 | 27.54510 | 25234 ft | 395 kts | 301° |
| 2026-05-05 05:55 | 41.93375 | 27.51340 | 25551 ft | 396 kts | 301° |
| 2026-05-05 05:55 | 41.94793 | 27.48158 | 25858 ft | 398 kts | 301° |
| 2026-05-05 05:55 | 41.96219 | 27.44955 | 26181 ft | 400 kts | 301° |
| 2026-05-05 05:56 | 41.97630 | 27.41782 | 26526 ft | 402 kts | 301° |
| 2026-05-05 05:56 | 41.99068 | 27.38545 | 26858 ft | 405 kts | 301° |
| 2026-05-05 05:56 | 42.00516 | 27.35282 | 27197 ft | 407 kts | 301° |
| 2026-05-05 05:56 | 42.01970 | 27.32003 | 27585 ft | 409 kts | 301° |
| 2026-05-05 05:57 | 42.03430 | 27.28705 | 27971 ft | 411 kts | 301° |
| 2026-05-05 05:57 | 42.04895 | 27.25393 | 28363 ft | 413 kts | 301° |
| 2026-05-05 05:57 | 42.06465 | 27.22139 | 28750 ft | 416 kts | 306° |
| 2026-05-05 05:57 | 42.07656 | 27.20117 | 28998 ft | 418 kts | 309° |